Terminal Aerodrome Forecast
Issued by NWS

Home | Current Version | Previous Version | Text Only | Print | Product List | Glossary Off
Versions: 1 2 3 4 5 6 7 8 9 10 11 12 13 14 15 16 17 18 19

000
FTUS43 KMPX 171100
TAFRWF
TAF
KRWF 171120Z 1712/1812 15005KT 6SM BR VCSH SCT008 OVC040
     FM171800 17005KT P6SM BKN050
     FM180000 16004KT P6SM SCT020 BKN040
     FM180700 14005KT 4SM BR SCT003 OVC010 PROB30 1810/1812 4SM TS
      BKN020CB=

USA.gov is the U.S. government's official web portal to all federal, state and local government web resources and services.